createdAt,value
2023-05-15T00:00:37.664Z,28.35
2023-05-15T00:03:04.733Z,31.30
2023-05-15T00:05:31.875Z,26.70
2023-05-15T00:07:58.832Z,30.15
2023-05-15T00:10:25.565Z,25.90
2023-05-15T00:12:52.327Z,36.60
2023-05-15T00:15:19.043Z,34.10
2023-05-15T00:17:45.816Z,32.20
2023-05-15T00:20:13.029Z,35.83
2023-05-15T00:22:39.789Z,39.05
2023-05-15T00:25:07.138Z,37.60
2023-05-15T00:27:33.876Z,42.10
2023-05-15T00:30:00.692Z,31.33
2023-05-15T00:32:27.446Z,40.00
2023-05-15T00:34:54.142Z,38.20
2023-05-15T00:37:20.890Z,37.65
2023-05-15T00:39:47.648Z,39.65
2023-05-15T00:42:16.285Z,39.15
2023-05-15T00:44:44.176Z,41.65
2023-05-15T00:47:11.583Z,41.67
2023-05-15T00:49:38.720Z,39.35
2023-05-15T00:52:08.334Z,40.17
2023-05-15T00:54:35.506Z,39.03
2023-05-15T00:57:03.822Z,43.65
2023-05-15T00:59:32.602Z,40.33
2023-05-15T01:01:59.339Z,38.05
2023-05-15T01:04:26.343Z,45.38
2023-05-15T01:06:56.775Z,39.45
2023-05-15T01:09:25.418Z,40.53
2023-05-15T01:11:57.027Z,38.20
2023-05-15T01:14:23.746Z,42.83
2023-05-15T01:16:50.528Z,37.30
2023-05-15T01:19:17.690Z,35.88
2023-05-15T01:22:16.819Z,45.38
2023-05-15T01:25:01.988Z,46.42
2023-05-15T01:27:41.012Z,39.45
2023-05-15T01:30:18.146Z,42.08
2023-05-15T01:32:55.804Z,39.80
2023-05-15T01:35:34.247Z,35.38
2023-05-15T01:38:29.283Z,43.00
2023-05-15T01:41:03.404Z,46.22
2023-05-15T01:43:33.641Z,39.55
2023-05-15T01:46:00.621Z,40.85
2023-05-15T01:48:28.428Z,37.58
2023-05-15T01:50:59.182Z,39.47
2023-05-15T01:53:27.252Z,37.38
2023-05-15T01:55:54.861Z,36.50
2023-05-15T01:58:23.185Z,38.85
2023-05-15T02:00:51.170Z,40.53
2023-05-15T02:03:19.070Z,38.53
2023-05-15T02:05:46.830Z,40.35
2023-05-15T02:08:15.381Z,38.03
2023-05-15T02:10:43.700Z,40.72
2023-05-15T02:13:11.284Z,41.03
2023-05-15T02:15:38.844Z,39.17
2023-05-15T02:18:05.904Z,39.13
2023-05-15T02:20:32.636Z,40.15
2023-05-15T02:22:59.395Z,37.72
2023-05-15T02:25:42.214Z,37.50
2023-05-15T02:28:17.423Z,44.58
2023-05-15T02:30:55.450Z,44.15
2023-05-15T02:34:06.679Z,37.53
2023-05-15T02:36:37.545Z,43.30
2023-05-15T02:39:04.635Z,38.73
2023-05-15T02:41:33.287Z,39.20
2023-05-15T02:44:01.267Z,39.72
2023-05-15T02:46:28.375Z,38.33
2023-05-15T02:48:55.647Z,37.72
2023-05-15T02:51:22.405Z,38.30
2023-05-15T02:53:49.702Z,39.47
2023-05-15T02:56:16.529Z,35.15
2023-05-15T02:58:43.529Z,40.13
2023-05-15T03:01:10.575Z,37.22
2023-05-15T03:03:37.365Z,41.63
2023-05-15T03:06:04.367Z,42.58
2023-05-15T03:08:31.143Z,38.35
2023-05-15T03:10:58.287Z,36.22
2023-05-15T03:13:25.167Z,35.85
2023-05-15T03:15:53.038Z,43.83
2023-05-15T03:18:19.834Z,47.30
2023-05-15T03:20:49.167Z,51.97
2023-05-15T03:23:16.100Z,48.25
2023-05-15T03:25:42.842Z,51.78
2023-05-15T03:28:09.612Z,49.17
2023-05-15T03:30:36.337Z,47.45
2023-05-15T03:33:04.109Z,39.55
2023-05-15T03:35:32.484Z,42.92
2023-05-15T03:37:59.386Z,43.92
2023-05-15T03:40:26.206Z,41.08
2023-05-15T03:42:53.583Z,41.72
2023-05-15T03:45:21.190Z,42.45
2023-05-15T03:47:48.460Z,42.88
2023-05-15T03:50:16.062Z,47.67
2023-05-15T03:52:42.846Z,48.65
2023-05-15T03:55:09.686Z,41.38
2023-05-15T03:57:36.608Z,46.63
2023-05-15T04:00:09.707Z,39.40
2023-05-15T04:02:37.356Z,43.35
2023-05-15T04:05:05.361Z,39.38
2023-05-15T04:07:33.525Z,39.47
2023-05-15T04:10:04.017Z,37.63
2023-05-15T04:12:33.228Z,39.33
2023-05-15T04:15:19.205Z,39.35
2023-05-15T04:17:47.623Z,38.88
2023-05-15T04:20:15.902Z,38.38
2023-05-15T04:22:43.676Z,39.63
2023-05-15T04:25:12.111Z,33.13
2023-05-15T04:27:38.971Z,29.25
2023-05-15T04:30:06.833Z,32.35
2023-05-15T04:32:34.124Z,31.17
2023-05-15T04:35:02.058Z,26.27
2023-05-15T04:37:29.322Z,27.65
2023-05-15T04:39:56.055Z,30.48
2023-05-15T04:42:22.812Z,30.33
2023-05-15T04:44:49.605Z,28.35
2023-05-15T04:47:16.755Z,32.85
2023-05-15T04:49:43.539Z,29.23
2023-05-15T04:52:10.508Z,30.70
2023-05-15T04:54:37.235Z,35.00
2023-05-15T04:57:04.107Z,31.08
2023-05-15T04:59:30.944Z,32.67
2023-05-15T05:01:57.792Z,34.78
2023-05-15T05:04:24.661Z,36.95
2023-05-15T05:06:51.421Z,34.45
2023-05-15T05:09:20.033Z,31.83
2023-05-15T05:11:48.064Z,34.55
2023-05-15T05:14:15.608Z,38.42
2023-05-15T05:16:45.556Z,36.38
2023-05-15T05:19:12.328Z,36.97
2023-05-15T05:21:39.173Z,38.95
2023-05-15T05:24:06.106Z,37.08
2023-05-15T05:26:32.878Z,34.85
2023-05-15T05:28:59.674Z,37.63
2023-05-15T05:31:26.461Z,36.92
2023-05-15T05:33:53.292Z,35.55
2023-05-15T05:36:19.994Z,37.15
2023-05-15T05:38:46.764Z,37.20
2023-05-15T05:41:13.582Z,41.15
2023-05-15T05:43:40.348Z,39.22
2023-05-15T05:46:07.080Z,39.03
2023-05-15T05:48:33.788Z,39.53
2023-05-15T05:51:00.552Z,38.33
2023-05-15T05:53:27.246Z,40.45
2023-05-15T05:55:54.484Z,36.30
2023-05-15T05:58:25.417Z,38.97
2023-05-15T06:00:52.898Z,38.92
2023-05-15T06:03:20.935Z,37.63
2023-05-15T06:05:48.705Z,44.42
2023-05-15T06:08:15.603Z,40.30
2023-05-15T06:10:42.490Z,39.38
2023-05-15T06:13:09.287Z,36.70
2023-05-15T06:15:36.057Z,43.08
2023-05-15T06:18:03.002Z,41.75
2023-05-15T06:20:29.785Z,40.90
2023-05-15T06:22:56.531Z,37.55
2023-05-15T06:25:23.427Z,41.47
2023-05-15T06:27:50.291Z,41.05
2023-05-15T06:30:17.092Z,46.15
2023-05-15T06:32:43.862Z,45.33
2023-05-15T06:35:11.019Z,46.53
2023-05-15T06:37:38.342Z,45.25
2023-05-15T06:40:06.263Z,48.53
2023-05-15T06:42:33.339Z,49.90
2023-05-15T06:45:01.528Z,48.80
2023-05-15T06:47:28.405Z,45.53
2023-05-15T06:49:55.572Z,49.20
2023-05-15T06:52:22.279Z,51.45
2023-05-15T06:54:49.096Z,52.80
2023-05-15T06:57:16.008Z,54.17
2023-05-15T06:59:42.840Z,55.15
2023-05-15T07:02:09.733Z,55.38
2023-05-15T07:04:36.716Z,52.38
2023-05-15T07:07:03.573Z,56.40
2023-05-15T07:09:30.986Z,53.58
2023-05-15T07:11:57.758Z,51.25
2023-05-15T07:14:24.743Z,46.67
2023-05-15T07:16:51.532Z,45.53
2023-05-15T07:19:21.632Z,47.72
2023-05-15T07:21:48.466Z,49.83
2023-05-15T07:24:15.277Z,51.78
2023-05-15T07:26:54.329Z,56.47
2023-05-15T07:29:25.253Z,53.88
2023-05-15T07:31:52.075Z,58.33
2023-05-15T07:34:18.893Z,54.72
2023-05-15T07:36:45.684Z,55.40
2023-05-15T07:39:13.226Z,58.42
2023-05-15T07:41:40.098Z,57.72
2023-05-15T07:44:06.917Z,53.15
2023-05-15T07:46:34.306Z,53.65
2023-05-15T07:49:01.103Z,52.53
2023-05-15T07:51:27.856Z,54.08
2023-05-15T07:53:54.597Z,59.25
2023-05-15T07:56:21.522Z,58.47
2023-05-15T07:58:48.425Z,52.50
2023-05-15T08:01:15.962Z,59.08
2023-05-15T08:03:42.813Z,65.63
2023-05-15T08:06:09.625Z,58.97
2023-05-15T08:08:36.533Z,60.47
2023-05-15T08:11:03.354Z,64.43
2023-05-15T08:13:30.067Z,72.13
2023-05-15T08:15:56.851Z,71.35
2023-05-15T08:18:25.678Z,72.35
2023-05-15T08:20:52.381Z,75.00
2023-05-15T08:23:19.221Z,82.72
2023-05-15T08:25:46.142Z,94.22
2023-05-15T08:28:12.933Z,86.38
2023-05-15T08:30:39.708Z,89.80
2023-05-15T08:33:06.552Z,84.15
2023-05-15T08:35:33.392Z,78.05
2023-05-15T08:38:00.531Z,76.00
2023-05-15T08:43:03.388Z,82.22
2023-05-15T08:45:30.474Z,69.47
2023-05-15T08:47:58.798Z,76.57
2023-05-15T08:50:26.456Z,72.03
2023-05-15T08:52:58.369Z,69.70
2023-05-15T08:55:25.679Z,63.83
2023-05-15T08:57:54.527Z,61.83
2023-05-15T09:00:22.408Z,55.35
2023-05-15T09:02:49.356Z,55.08
2023-05-15T09:05:16.118Z,57.67
2023-05-15T09:07:44.987Z,56.47
2023-05-15T09:10:13.164Z,57.13
2023-05-15T09:12:44.625Z,56.13
2023-05-15T09:15:11.655Z,46.95
2023-05-15T09:17:39.233Z,44.88
2023-05-15T09:20:06.530Z,41.25
2023-05-15T09:22:36.791Z,46.53
2023-05-15T09:25:04.420Z,43.40
2023-05-15T09:27:40.678Z,44.53
2023-05-15T09:30:10.744Z,36.15
2023-05-15T09:32:38.446Z,36.95
2023-05-15T09:35:27.105Z,35.25
2023-05-15T09:38:02.053Z,37.97
2023-05-15T09:40:30.726Z,35.33
2023-05-15T09:42:58.255Z,41.50
2023-05-15T09:45:26.949Z,34.03
2023-05-15T09:47:54.196Z,35.30
2023-05-15T09:50:33.509Z,37.70
2023-05-15T09:53:00.351Z,36.35
2023-05-15T09:55:27.681Z,33.83
2023-05-15T09:58:09.092Z,35.97
2023-05-15T10:00:36.909Z,38.40
2023-05-15T10:03:17.002Z,35.20
2023-05-15T10:05:44.524Z,36.15
2023-05-15T10:08:11.879Z,33.63
2023-05-15T10:10:38.966Z,32.70
2023-05-15T10:13:08.267Z,34.13
2023-05-15T10:15:35.554Z,30.25
2023-05-15T10:18:05.020Z,33.83
2023-05-15T10:20:35.579Z,27.52
2023-05-15T10:23:05.007Z,25.00
2023-05-15T10:25:40.625Z,23.40
2023-05-15T10:28:11.688Z,16.40
2023-05-15T10:30:38.984Z,18.02
2023-05-15T10:33:07.572Z,15.30
2023-05-15T10:35:34.996Z,11.88
2023-05-15T10:38:05.429Z,11.82
2023-05-15T10:40:33.439Z,9.32
2023-05-15T10:43:01.724Z,8.63
2023-05-15T10:45:30.022Z,7.28
2023-05-15T10:47:57.929Z,10.40
2023-05-15T10:50:24.943Z,10.77
2023-05-15T10:52:52.571Z,9.55
2023-05-15T10:55:19.794Z,9.52
2023-05-15T10:57:49.428Z,10.45
2023-05-15T11:00:22.144Z,16.17
2023-05-15T11:02:49.750Z,16.45
2023-05-15T11:05:16.668Z,16.67
2023-05-15T11:07:43.435Z,23.15
2023-05-15T11:10:28.522Z,19.17
2023-05-15T11:12:59.629Z,14.80
2023-05-15T11:15:26.382Z,12.25
2023-05-15T11:18:03.896Z,16.33
2023-05-15T11:20:43.372Z,18.50
2023-05-15T11:23:10.148Z,18.27
2023-05-15T11:25:37.406Z,15.68
2023-05-15T11:28:05.492Z,13.68
2023-05-15T11:30:44.107Z,9.73
2023-05-15T11:33:11.647Z,16.00
2023-05-15T11:35:42.994Z,22.83
2023-05-15T11:38:09.707Z,14.70
2023-05-15T11:40:52.510Z,17.33
2023-05-15T11:43:19.236Z,20.98
2023-05-15T11:45:48.868Z,14.00
2023-05-15T11:48:17.342Z,17.83
2023-05-15T11:50:45.610Z,15.52
2023-05-15T11:53:13.389Z,14.00
2023-05-15T11:55:42.031Z,16.58
2023-05-15T11:58:17.408Z,14.27
2023-05-15T12:00:46.407Z,16.08
2023-05-15T12:03:19.413Z,13.57
2023-05-15T12:05:57.670Z,18.83
2023-05-15T12:08:25.558Z,15.50
2023-05-15T12:10:52.435Z,17.73
2023-05-15T12:13:19.292Z,14.73
2023-05-15T12:15:47.314Z,17.30
2023-05-15T12:18:14.274Z,15.25
2023-05-15T12:20:46.807Z,20.77
2023-05-15T12:23:17.753Z,16.90
2023-05-15T12:25:47.244Z,20.52
2023-05-15T12:28:14.639Z,22.50
2023-05-15T12:30:42.876Z,15.98
2023-05-15T12:33:10.961Z,15.13
2023-05-15T12:35:43.146Z,17.02
2023-05-15T12:38:15.899Z,14.48
2023-05-15T12:40:44.799Z,14.27
2023-05-15T12:43:11.660Z,19.83
2023-05-15T12:45:39.442Z,17.45
2023-05-15T12:48:07.893Z,17.30
2023-05-15T12:50:35.899Z,13.15
2023-05-15T12:53:04.708Z,15.35
2023-05-15T12:55:33.921Z,15.45
2023-05-15T12:58:09.528Z,14.00
2023-05-15T13:00:38.160Z,16.63
2023-05-15T13:03:05.375Z,16.30
2023-05-15T13:05:33.751Z,16.10
2023-05-15T13:08:02.711Z,14.23
2023-05-15T13:10:32.435Z,14.18
2023-05-15T13:12:59.522Z,7.43
2023-05-15T13:15:32.536Z,8.00
2023-05-15T13:18:00.521Z,11.15
2023-05-15T13:20:28.903Z,9.10
2023-05-15T13:22:55.979Z,10.45
2023-05-15T13:25:22.756Z,10.48
2023-05-15T13:27:50.008Z,10.05
2023-05-15T13:30:17.857Z,10.65
2023-05-15T13:32:45.144Z,9.07
2023-05-15T13:35:12.019Z,9.50
2023-05-15T13:37:39.012Z,5.93
2023-05-15T13:40:11.679Z,7.47
2023-05-15T13:42:43.014Z,12.52
2023-05-15T13:45:12.199Z,8.40
2023-05-15T13:47:42.312Z,6.88
2023-05-15T13:50:11.378Z,8.52
2023-05-15T13:52:39.298Z,10.90
2023-05-15T13:55:06.978Z,9.35
2023-05-15T13:57:33.829Z,9.02
2023-05-15T14:00:00.874Z,9.23
2023-05-15T14:02:28.668Z,11.05
2023-05-15T14:04:55.748Z,8.60
2023-05-15T14:07:24.071Z,11.35
2023-05-15T14:09:51.398Z,14.32
2023-05-15T14:12:18.611Z,8.45
2023-05-15T14:14:46.677Z,15.57
2023-05-15T14:17:14.053Z,11.23
2023-05-15T14:19:41.289Z,15.15
2023-05-15T14:22:08.005Z,9.95
2023-05-15T14:24:34.797Z,9.88
2023-05-15T14:27:01.776Z,17.10
2023-05-15T14:29:28.549Z,15.40
2023-05-15T14:31:55.280Z,12.30
2023-05-15T14:34:22.588Z,9.88
2023-05-15T14:36:50.213Z,14.07
2023-05-15T14:39:17.826Z,15.25
2023-05-15T14:41:45.563Z,15.38
2023-05-15T14:44:12.330Z,20.65
2023-05-15T14:46:40.845Z,16.60
2023-05-15T14:49:07.749Z,12.43
2023-05-15T14:51:34.612Z,14.68
2023-05-15T14:54:01.439Z,18.15
2023-05-15T14:56:28.192Z,15.02
2023-05-15T14:58:55.048Z,25.73
2023-05-15T15:01:21.892Z,14.85
2023-05-15T15:03:48.744Z,27.77
2023-05-15T15:06:15.618Z,15.52
2023-05-15T15:08:42.771Z,17.88
2023-05-15T15:11:10.442Z,23.35
2023-05-15T15:13:37.147Z,18.45
2023-05-15T15:16:04.751Z,18.83
2023-05-15T15:18:31.712Z,13.50
2023-05-15T15:20:58.607Z,14.02
2023-05-15T15:23:25.443Z,9.05
2023-05-15T15:25:52.087Z,16.35
2023-05-15T15:28:18.783Z,16.15
2023-05-15T15:30:45.552Z,20.23
2023-05-15T15:33:12.267Z,16.98
2023-05-15T15:35:38.981Z,14.50
2023-05-15T15:38:06.307Z,15.77
2023-05-15T15:40:34.781Z,14.13
2023-05-15T15:43:01.658Z,21.48
2023-05-15T15:45:28.467Z,21.77
2023-05-15T15:47:55.360Z,21.80
2023-05-15T15:50:22.143Z,17.13
2023-05-15T15:52:48.941Z,24.90
2023-05-15T15:55:15.812Z,17.48
2023-05-15T15:57:42.577Z,18.52
2023-05-15T16:00:09.792Z,13.60
2023-05-15T16:02:36.926Z,18.33
2023-05-15T16:05:03.874Z,19.92
2023-05-15T16:07:30.646Z,19.80
2023-05-15T16:10:10.827Z,22.85
2023-05-15T16:12:40.720Z,18.45
2023-05-15T16:15:21.578Z,21.77
2023-05-15T16:17:52.836Z,25.38
2023-05-15T16:20:20.369Z,25.65
2023-05-15T16:22:47.063Z,25.15
2023-05-15T16:25:13.806Z,24.45
2023-05-15T16:27:40.504Z,22.98
2023-05-15T16:30:09.146Z,28.27
2023-05-15T16:32:36.246Z,25.70
2023-05-15T16:35:03.531Z,24.58
2023-05-15T16:37:30.453Z,21.60
2023-05-15T16:39:57.243Z,25.23
2023-05-15T16:42:23.990Z,24.67
2023-05-15T16:44:50.749Z,18.27
2023-05-15T16:47:17.436Z,16.13
2023-05-15T16:49:45.786Z,19.75
2023-05-15T16:52:13.771Z,18.70
2023-05-15T16:54:41.935Z,26.25
2023-05-15T16:57:08.664Z,17.55
2023-05-15T16:59:35.439Z,19.48
2023-05-15T17:02:02.315Z,18.92
2023-05-15T17:04:32.904Z,20.15
2023-05-15T17:06:59.913Z,21.57
2023-05-15T17:09:26.789Z,17.60
2023-05-15T17:11:53.507Z,16.05
2023-05-15T17:14:20.239Z,14.57
2023-05-15T17:16:47.213Z,18.05
2023-05-15T17:19:14.246Z,18.88
2023-05-15T17:21:41.081Z,16.30
2023-05-15T17:24:07.954Z,16.45
2023-05-15T17:26:34.702Z,22.33
2023-05-15T17:29:01.388Z,13.43
2023-05-15T17:31:29.430Z,16.80
2023-05-15T17:33:56.498Z,23.45
2023-05-15T17:36:23.313Z,13.93
2023-05-15T17:38:50.078Z,13.00
2023-05-15T17:41:16.874Z,13.18
2023-05-15T17:43:43.649Z,13.10
2023-05-15T17:46:10.460Z,16.60
2023-05-15T17:48:37.167Z,17.13
2023-05-15T17:51:03.827Z,17.08
2023-05-15T17:53:30.552Z,16.05
2023-05-15T17:55:57.816Z,21.90
2023-05-15T17:58:24.664Z,18.70
2023-05-15T18:00:52.099Z,21.83
2023-05-15T18:03:18.899Z,23.17
2023-05-15T18:05:47.088Z,24.58
2023-05-15T18:08:14.422Z,22.92
2023-05-15T18:10:41.248Z,23.42
2023-05-15T18:13:07.943Z,20.95
2023-05-15T18:15:38.009Z,17.98
2023-05-15T18:18:05.510Z,23.50
2023-05-15T18:20:32.283Z,21.08
2023-05-15T18:22:59.170Z,22.20
2023-05-15T18:25:26.691Z,22.02
2023-05-15T18:27:53.734Z,29.38
2023-05-15T18:30:20.642Z,22.23
2023-05-15T18:32:47.399Z,20.90
2023-05-15T18:35:14.336Z,26.65
2023-05-15T18:37:41.100Z,19.25
2023-05-15T18:40:08.546Z,19.80
2023-05-15T18:42:35.525Z,19.35
2023-05-15T18:45:02.287Z,22.27
2023-05-15T18:47:29.206Z,22.13
2023-05-15T18:49:56.085Z,15.93
2023-05-15T18:52:23.042Z,26.45
2023-05-15T18:54:49.855Z,22.25
2023-05-15T18:57:16.884Z,20.92
2023-05-15T18:59:44.474Z,20.15
2023-05-15T19:02:11.273Z,19.33
2023-05-15T19:04:38.024Z,20.60
2023-05-15T19:07:05.293Z,24.95
2023-05-15T19:09:32.329Z,25.13
2023-05-15T19:12:02.946Z,22.98
2023-05-15T19:14:29.789Z,26.50
2023-05-15T19:16:56.604Z,18.08
2023-05-15T19:19:23.524Z,21.50
2023-05-15T19:21:51.879Z,21.50
2023-05-15T19:24:19.413Z,17.48
2023-05-15T19:26:46.266Z,23.33
2023-05-15T19:29:13.026Z,16.85
2023-05-15T19:31:40.103Z,25.23
2023-05-15T19:34:06.921Z,20.90
2023-05-15T19:36:33.658Z,27.60
2023-05-15T19:39:00.355Z,20.40
2023-05-15T19:41:27.107Z,23.02
2023-05-15T19:43:53.900Z,14.68
2023-05-15T19:46:20.845Z,23.30
2023-05-15T19:48:47.797Z,23.27
2023-05-15T19:51:14.633Z,20.52
2023-05-15T19:53:41.524Z,21.30
2023-05-15T19:56:08.529Z,16.08
2023-05-15T19:58:35.542Z,18.40
2023-05-15T20:01:02.315Z,23.95
2023-05-15T20:03:33.278Z,18.90
2023-05-15T20:06:01.372Z,18.20
2023-05-15T20:08:31.897Z,30.65
2023-05-15T20:10:58.699Z,21.85
2023-05-15T20:13:25.562Z,23.73
2023-05-15T20:15:59.953Z,18.60
2023-05-15T20:18:30.358Z,23.80
2023-05-15T20:20:59.088Z,22.27
2023-05-15T20:23:25.822Z,20.52
2023-05-15T20:25:52.857Z,23.23
2023-05-15T20:28:19.990Z,21.80
2023-05-15T20:30:47.338Z,19.83
2023-05-15T20:33:14.577Z,22.02
2023-05-15T20:35:42.789Z,18.67
2023-05-15T20:38:10.503Z,17.70
2023-05-15T20:40:37.794Z,25.10
2023-05-15T20:43:04.969Z,18.38
2023-05-15T20:45:34.501Z,24.27
2023-05-15T20:48:01.544Z,23.65
2023-05-15T20:50:28.559Z,21.05
2023-05-15T20:52:55.712Z,19.65
2023-05-15T20:55:22.650Z,18.75
2023-05-15T20:57:50.635Z,20.48
2023-05-15T21:00:18.446Z,21.95
2023-05-15T21:02:46.713Z,23.55
2023-05-15T21:05:13.964Z,24.35
2023-05-15T21:07:41.174Z,17.80
2023-05-15T21:10:08.454Z,18.33
2023-05-15T21:12:35.391Z,25.52
2023-05-15T21:15:02.946Z,19.05
2023-05-15T21:17:30.041Z,16.05
2023-05-15T21:19:58.474Z,22.13
2023-05-15T21:22:25.214Z,20.13
2023-05-15T21:24:52.261Z,20.02
2023-05-15T21:27:19.130Z,17.15
2023-05-15T21:29:46.424Z,22.55
2023-05-15T21:32:13.225Z,21.17
2023-05-15T21:34:40.050Z,16.60
2023-05-15T21:37:06.860Z,18.88
2023-05-15T21:39:33.560Z,19.67
2023-05-15T21:42:00.304Z,15.98
2023-05-15T21:44:27.055Z,19.85
2023-05-15T21:46:53.925Z,19.35
2023-05-15T21:49:20.759Z,17.10
2023-05-15T21:51:47.545Z,23.55
2023-05-15T21:54:14.315Z,20.30
2023-05-15T21:56:41.192Z,20.08
2023-05-15T21:59:08.156Z,22.92
2023-05-15T22:01:36.141Z,20.85
2023-05-15T22:04:03.164Z,22.58
2023-05-15T22:06:30.083Z,22.70
2023-05-15T22:08:57.515Z,19.27
2023-05-15T22:11:24.349Z,19.60
2023-05-15T22:13:51.113Z,20.83
2023-05-15T22:16:19.325Z,16.67
2023-05-15T22:18:47.535Z,19.85
2023-05-15T22:21:15.107Z,20.02
2023-05-15T22:23:41.810Z,22.10
2023-05-15T22:26:08.527Z,22.17
2023-05-15T22:28:35.620Z,23.15
2023-05-15T22:31:04.147Z,23.13
2023-05-15T22:33:31.017Z,16.90
2023-05-15T22:35:57.694Z,17.35
2023-05-15T22:38:24.597Z,20.90
2023-05-15T22:40:52.328Z,19.77
2023-05-15T22:43:19.427Z,19.77
2023-05-15T22:45:46.221Z,16.08
2023-05-15T22:48:13.000Z,20.80
2023-05-15T22:50:39.719Z,18.05
2023-05-15T22:53:06.455Z,15.68
2023-05-15T22:55:33.175Z,16.38
2023-05-15T22:57:59.922Z,15.55
2023-05-15T23:00:26.838Z,18.60
2023-05-15T23:02:55.437Z,19.90
2023-05-15T23:05:22.897Z,21.23
2023-05-15T23:07:50.151Z,14.50
2023-05-15T23:10:17.078Z,16.75
2023-05-15T23:12:43.961Z,15.43
2023-05-15T23:15:11.015Z,13.45
2023-05-15T23:17:38.045Z,15.70
2023-05-15T23:20:15.593Z,13.45
2023-05-15T23:22:42.322Z,17.88
2023-05-15T23:25:09.494Z,16.58
2023-05-15T23:27:36.215Z,17.42
2023-05-15T23:30:03.434Z,19.02
2023-05-15T23:32:30.408Z,18.15
2023-05-15T23:34:58.483Z,18.52
2023-05-15T23:37:25.827Z,13.65
2023-05-15T23:39:55.179Z,14.57
2023-05-15T23:42:22.979Z,15.25
2023-05-15T23:44:50.139Z,14.82
2023-05-15T23:47:16.968Z,19.40
2023-05-15T23:49:43.956Z,17.05
2023-05-15T23:52:10.829Z,16.63
2023-05-15T23:54:37.560Z,14.88
2023-05-15T23:57:04.418Z,18.67
2023-05-15T23:59:31.246Z,14.73
